Time;durP1;ratioP1;P1;durP2;ratioP2;P2;SDS_P1;SDS_P2;PMS_P1;PMS_P2;Temp;Humidity;BMP_temperature;BMP_pressure;BME280_temperature;BME280_humidity;BME280_pressure;Samples;Min_cycle;Max_cycle;Signal;HPM_P1;HPM_P2
2023/07/30 00:01:57;;;;;;;4.60;4.20;;;;;;;;;;5074336;28;20480;-78
2023/07/30 00:04:23;;;;;;;5.20;4.70;;;;;;;;;;5074456;28;20194;-77
2023/07/30 00:06:52;;;;;;;8.00;5.27;;;;;;;;;;5073348;28;20209;-78
2023/07/30 00:09:18;;;;;;;5.03;4.20;;;;;;;;;;5074121;28;20775;-78
2023/07/30 00:11:44;;;;;;;8.80;4.63;;;;;;;;;;5072456;28;20425;-79
2023/07/30 00:14:10;;;;;;;5.40;4.90;;;;;;;;;;5074121;28;20176;-77
2023/07/30 00:16:36;;;;;;;5.03;4.53;;;;;;;;;;5074141;28;20419;-78
2023/07/30 00:19:01;;;;;;;5.77;4.37;;;;;;;;;;5074133;28;20410;-80
2023/07/30 00:21:27;;;;;;;5.87;4.70;;;;;;;;;;5073978;28;20410;-80
2023/07/30 00:23:53;;;;;;;4.90;3.77;;;;;;;;;;5073600;28;20444;-79
2023/07/30 00:26:19;;;;;;;5.57;3.80;;;;;;;;;;5071903;28;20265;-79
2023/07/30 00:28:45;;;;;;;5.30;4.80;;;;;;;;;;5073823;28;20213;-79
2023/07/30 00:31:11;;;;;;;7.40;4.50;;;;;;;;;;5073452;28;20830;-79
2023/07/30 00:33:37;;;;;;;4.37;3.80;;;;;;;;;;5073459;28;20193;-79
2023/07/30 00:36:03;;;;;;;6.20;3.80;;;;;;;;;;5071848;28;20179;-79
2023/07/30 00:38:29;;;;;;;5.30;4.80;;;;;;;;;;5073184;28;20175;-79
2023/07/30 00:40:55;;;;;;;6.00;4.00;;;;;;;;;;5073120;28;20981;-78
2023/07/30 00:43:21;;;;;;;4.03;3.63;;;;;;;;;;5073147;28;20469;-79
2023/07/30 00:45:47;;;;;;;4.10;3.03;;;;;;;;;;5073529;28;20421;-79
2023/07/30 00:48:13;;;;;;;69.57;14.77;;;;;;;;;;5072122;28;20487;-78
2023/07/30 00:50:40;;;;;;;7.23;4.07;;;;;;;;;;5073420;28;20406;-79
2023/07/30 00:53:06;;;;;;;4.93;4.40;;;;;;;;;;5073293;28;20556;-79
2023/07/30 00:55:35;;;;;;;5.93;3.93;;;;;;;;;;5071447;28;20559;-78
2023/07/30 00:58:02;;;;;;;4.67;4.07;;;;;;;;;;5073121;28;20405;-78
2023/07/30 01:00:29;;;;;;;5.13;4.70;;;;;;;;;;5073191;28;20452;-79
2023/07/30 01:02:55;;;;;;;4.97;4.00;;;;;;;;;;5071812;28;20904;-78
2023/07/30 01:05:21;;;;;;;4.03;3.63;;;;;;;;;;5072927;28;20764;-78
2023/07/30 01:07:47;;;;;;;4.70;3.90;;;;;;;;;;5073015;28;20530;-78
2023/07/30 01:10:13;;;;;;;5.27;4.07;;;;;;;;;;5071747;28;20225;-78
2023/07/30 01:12:40;;;;;;;4.87;4.00;;;;;;;;;;5072715;28;20413;-79
2023/07/30 01:15:10;;;;;;;4.93;3.30;;;;;;;;;;5073003;28;20441;-78
2023/07/30 01:17:36;;;;;;;5.10;3.47;;;;;;;;;;5072915;28;20412;-79
2023/07/30 01:20:02;;;;;;;272.00;46.90;;;;;;;;;;5072773;28;20405;-79
2023/07/30 01:22:28;;;;;;;4.93;3.80;;;;;;;;;;5072846;28;20507;-78
2023/07/30 01:24:54;;;;;;;6.43;4.47;;;;;;;;;;5072946;28;20810;-79
2023/07/30 01:27:23;;;;;;;5.80;4.43;;;;;;;;;;5071271;28;20216;-79
2023/07/30 01:29:54;;;;;;;6.87;4.00;;;;;;;;;;5072879;28;20400;-78
2023/07/30 01:32:20;;;;;;;5.00;3.90;;;;;;;;;;5072844;28;20939;-78
2023/07/30 01:34:47;;;;;;;4.40;4.00;;;;;;;;;;5072404;28;20408;-78
2023/07/30 01:37:13;;;;;;;5.10;3.80;;;;;;;;;;5072728;28;20417;-78
2023/07/30 01:39:41;;;;;;;7.47;4.70;;;;;;;;;;5072943;28;20412;-78
2023/07/30 01:42:07;;;;;;;4.20;3.47;;;;;;;;;;5072151;28;20462;-77
2023/07/30 01:44:33;;;;;;;4.40;3.00;;;;;;;;;;5072280;28;20425;-78
2023/07/30 01:46:59;;;;;;;7.80;3.63;;;;;;;;;;5072467;28;20459;-78
2023/07/30 01:49:24;;;;;;;4.50;4.10;;;;;;;;;;5072574;28;20421;-78
2023/07/30 01:51:50;;;;;;;5.00;4.37;;;;;;;;;;5072658;28;20645;-79
2023/07/30 01:54:16;;;;;;;5.47;3.73;;;;;;;;;;5072666;28;20184;-79
2023/07/30 01:56:45;;;;;;;5.63;3.50;;;;;;;;;;5072349;28;20414;-79
2023/07/30 01:59:11;;;;;;;5.27;4.87;;;;;;;;;;5072413;28;20174;-77
2023/07/30 02:01:37;;;;;;;4.43;3.87;;;;;;;;;;5072535;28;20410;-79
2023/07/30 02:04:03;;;;;;;4.87;3.37;;;;;;;;;;5072564;28;20638;-78
2023/07/30 02:06:29;;;;;;;4.93;3.73;;;;;;;;;;5072457;28;20176;-78
2023/07/30 02:08:54;;;;;;;4.40;3.47;;;;;;;;;;5072463;28;20477;-79
2023/07/30 02:11:20;;;;;;;5.17;2.87;;;;;;;;;;5072100;28;20182;-78
2023/07/30 02:13:46;;;;;;;4.30;3.83;;;;;;;;;;5072246;28;20641;-78
2023/07/30 02:16:18;;;;;;;4.80;4.30;;;;;;;;;;5072509;28;20479;-78
2023/07/30 02:18:44;;;;;;;3.93;3.20;;;;;;;;;;5072445;28;20767;-78
2023/07/30 02:21:10;;;;;;;21.13;11.00;;;;;;;;;;5072493;28;20414;-78
2023/07/30 02:23:42;;;;;;;5.80;4.00;;;;;;;;;;5072210;28;20506;-78
2023/07/30 02:26:08;;;;;;;5.97;4.13;;;;;;;;;;5072093;28;20399;-78
2023/07/30 02:28:33;;;;;;;3.67;3.37;;;;;;;;;;5072158;28;20466;-77
2023/07/30 02:30:59;;;;;;;5.93;4.43;;;;;;;;;;5074291;28;20619;-78
2023/07/30 02:33:25;;;;;;;6.10;4.10;;;;;;;;;;5076161;28;20181;-78
2023/07/30 02:35:51;;;;;;;4.57;4.13;;;;;;;;;;5075948;28;20580;-78
2023/07/30 02:38:19;;;;;;;6.70;3.90;;;;;;;;;;5075767;28;20844;-78
2023/07/30 02:40:45;;;;;;;4.40;4.00;;;;;;;;;;5075527;28;20170;-78
2023/07/30 02:43:11;;;;;;;4.17;3.77;;;;;;;;;;5075575;28;20473;-78
2023/07/30 02:45:38;;;;;;;6.00;3.40;;;;;;;;;;5075793;28;20178;-78
2023/07/30 02:48:04;;;;;;;5.57;4.30;;;;;;;;;;5075313;28;20586;-78
2023/07/30 02:50:30;;;;;;;4.53;3.80;;;;;;;;;;5075446;28;20818;-78
2023/07/30 02:52:56;;;;;;;6.90;3.97;;;;;;;;;;5087168;28;20426;-78
2023/07/30 02:55:25;;;;;;;5.70;5.10;;;;;;;;;;5075361;28;20420;-78
2023/07/30 02:57:51;;;;;;;4.80;4.30;;;;;;;;;;5075582;28;20189;-78
2023/07/30 03:00:17;;;;;;;4.57;3.73;;;;;;;;;;5075202;28;20430;-78
2023/07/30 03:02:43;;;;;;;4.63;3.83;;;;;;;;;;5075432;28;20236;-78
2023/07/30 03:05:09;;;;;;;5.40;4.57;;;;;;;;;;5075562;28;20455;-78
2023/07/30 03:07:35;;;;;;;5.10;4.03;;;;;;;;;;5075363;28;20663;-78
2023/07/30 03:10:02;;;;;;;5.90;5.30;;;;;;;;;;5075361;28;20410;-78
2023/07/30 03:12:28;;;;;;;5.70;4.77;;;;;;;;;;5075023;28;20425;-79
2023/07/30 03:14:54;;;;;;;5.80;5.30;;;;;;;;;;5075322;28;20768;-78
2023/07/30 03:17:20;;;;;;;6.60;5.70;;;;;;;;;;5075140;28;20416;-77
2023/07/30 03:19:46;;;;;;;8.63;5.30;;;;;;;;;;5075170;28;20176;-78
2023/07/30 03:22:12;;;;;;;7.53;6.03;;;;;;;;;;5073941;28;20771;-78
2023/07/30 03:24:38;;;;;;;6.50;5.67;;;;;;;;;;5073893;28;20427;-78
2023/07/30 03:27:07;;;;;;;6.00;5.00;;;;;;;;;;5074281;28;20545;-78
2023/07/30 03:29:33;;;;;;;7.80;5.87;;;;;;;;;;5075006;28;20466;-78
2023/07/30 03:31:59;;;;;;;7.73;5.43;;;;;;;;;;5073323;28;20524;-78
2023/07/30 03:34:25;;;;;;;6.13;5.53;;;;;;;;;;5075027;28;20412;-78
2023/07/30 03:36:51;;;;;;;6.13;5.23;;;;;;;;;;5074120;28;20187;-78
2023/07/30 03:39:17;;;;;;;6.10;5.50;;;;;;;;;;5074924;28;20407;-78
2023/07/30 03:41:43;;;;;;;7.17;5.83;;;;;;;;;;5073586;28;20409;-78
2023/07/30 03:44:09;;;;;;;6.60;6.00;;;;;;;;;;5074822;28;20470;-78
2023/07/30 03:46:35;;;;;;;6.10;5.40;;;;;;;;;;5074833;28;20514;-78
2023/07/30 03:49:01;;;;;;;6.60;5.60;;;;;;;;;;5074376;28;20421;-78
2023/07/30 03:51:27;;;;;;;6.90;4.77;;;;;;;;;;5074908;28;20183;-78
2023/07/30 03:53:53;;;;;;;7.17;5.30;;;;;;;;;;5073924;28;20433;-77
2023/07/30 03:56:19;;;;;;;5.70;4.90;;;;;;;;;;5074074;28;20421;-78
2023/07/30 03:58:45;;;;;;;5.63;5.03;;;;;;;;;;5073472;28;20173;-78
2023/07/30 04:01:11;;;;;;;5.97;5.10;;;;;;;;;;5074650;28;20175;-78
2023/07/30 04:03:37;;;;;;;6.70;5.10;;;;;;;;;;5074574;28;20171;-78
2023/07/30 04:06:03;;;;;;;4.87;4.37;;;;;;;;;;5074559;28;20467;-77
2023/07/30 04:08:29;;;;;;;7.57;6.60;;;;;;;;;;5073238;28;20451;-78
2023/07/30 04:10:54;;;;;;;10.53;5.70;;;;;;;;;;5074121;28;20167;-78
2023/07/30 04:13:20;;;;;;;13.90;5.20;;;;;;;;;;5074383;28;20705;-78
2023/07/30 04:15:48;;;;;;;7.57;4.90;;;;;;;;;;5074308;28;20175;-77
2023/07/30 04:18:14;;;;;;;5.93;5.00;;;;;;;;;;5074288;28;20951;-78
2023/07/30 04:20:39;;;;;;;8.83;5.23;;;;;;;;;;5074313;28;20409;-78
2023/07/30 04:23:05;;;;;;;7.57;5.63;;;;;;;;;;5074154;28;20483;-77
2023/07/30 04:25:31;;;;;;;6.30;5.70;;;;;;;;;;5073828;28;20318;-78
2023/07/30 04:27:57;;;;;;;7.63;5.77;;;;;;;;;;5074180;28;20482;-78
2023/07/30 04:30:24;;;;;;;5.60;4.80;;;;;;;;;;5074053;28;20406;-77
2023/07/30 04:32:50;;;;;;;6.20;5.57;;;;;;;;;;5073970;28;20414;-78
2023/07/30 04:35:16;;;;;;;7.60;5.93;;;;;;;;;;5073961;28;20401;-78
2023/07/30 04:37:41;;;;;;;7.83;6.03;;;;;;;;;;5073992;28;20171;-78
2023/07/30 04:40:08;;;;;;;8.03;5.90;;;;;;;;;;5073542;28;20765;-78
2023/07/30 04:42:34;;;;;;;6.43;5.83;;;;;;;;;;5073686;28;20745;-78
2023/07/30 04:45:00;;;;;;;7.53;6.00;;;;;;;;;;5073725;28;20414;-78
2023/07/30 04:47:26;;;;;;;8.70;6.90;;;;;;;;;;5073618;28;20211;-78
2023/07/30 04:49:52;;;;;;;8.20;5.83;;;;;;;;;;5073651;28;20490;-78
2023/07/30 04:52:19;;;;;;;7.37;4.70;;;;;;;;;;5073653;28;20858;-78
2023/07/30 04:54:45;;;;;;;7.53;5.10;;;;;;;;;;5073287;28;20451;-78
2023/07/30 04:57:11;;;;;;;8.60;6.50;;;;;;;;;;5071920;28;20915;-78
2023/07/30 04:59:36;;;;;;;7.13;5.70;;;;;;;;;;5073509;28;20413;-78
2023/07/30 05:02:02;;;;;;;7.67;5.53;;;;;;;;;;5073429;28;20211;-78
2023/07/30 05:04:28;;;;;;;6.53;5.70;;;;;;;;;;5073495;28;20220;-78
2023/07/30 05:06:54;;;;;;;6.83;5.87;;;;;;;;;;5073333;28;20453;-78
2023/07/30 05:09:20;;;;;;;9.87;4.80;;;;;;;;;;5073493;28;20420;-79
2023/07/30 05:11:46;;;;;;;8.20;5.23;;;;;;;;;;5072952;28;20175;-78
2023/07/30 05:14:12;;;;;;;9.00;5.10;;;;;;;;;;5073327;28;20673;-78
2023/07/30 05:16:38;;;;;;;9.37;7.33;;;;;;;;;;5072136;28;20417;-79
2023/07/30 05:19:04;;;;;;;9.60;5.40;;;;;;;;;;5073238;28;20173;-79
2023/07/30 05:21:30;;;;;;;6.80;4.57;;;;;;;;;;5073297;28;20182;-79
2023/07/30 05:23:56;;;;;;;8.50;4.70;;;;;;;;;;5073208;28;20426;-79
2023/07/30 05:26:22;;;;;;;6.77;4.90;;;;;;;;;;5072789;28;20413;-79
2023/07/30 05:28:48;;;;;;;6.53;4.90;;;;;;;;;;5073145;28;20644;-79
2023/07/30 05:31:14;;;;;;;10.83;6.20;;;;;;;;;;5073054;28;20414;-79
2023/07/30 05:33:40;;;;;;;7.27;5.03;;;;;;;;;;5073045;28;20418;-79
2023/07/30 05:36:06;;;;;;;6.40;4.40;;;;;;;;;;5073022;28;20190;-79
2023/07/30 05:38:32;;;;;;;9.80;5.13;;;;;;;;;;5073060;28;20254;-79
2023/07/30 05:40:58;;;;;;;9.77;5.37;;;;;;;;;;5072648;28;20838;-79
2023/07/30 05:43:24;;;;;;;6.83;4.70;;;;;;;;;;5072688;28;20305;-79
2023/07/30 05:45:49;;;;;;;7.07;4.13;;;;;;;;;;5072933;28;20441;-79
2023/07/30 05:48:15;;;;;;;5.83;4.40;;;;;;;;;;5072814;28;20772;-79
2023/07/30 05:50:41;;;;;;;6.37;4.20;;;;;;;;;;5072883;28;20176;-79
2023/07/30 05:53:07;;;;;;;8.23;4.20;;;;;;;;;;5072922;28;20176;-79
2023/07/30 05:55:33;;;;;;;7.30;4.03;;;;;;;;;;5072499;28;20165;-79
2023/07/30 05:57:59;;;;;;;6.50;3.40;;;;;;;;;;5072872;28;20172;-79
2023/07/30 06:00:25;;;;;;;5.53;3.90;;;;;;;;;;5092949;28;20214;-79
2023/07/30 06:02:51;;;;;;;6.83;3.60;;;;;;;;;;5092957;28;20414;-79
2023/07/30 06:05:17;;;;;;;7.97;4.00;;;;;;;;;;5092821;28;20192;-79
2023/07/30 06:07:43;;;;;;;3.40;1.60;;;;;;;;;;5094619;28;20485;-79
2023/07/30 06:10:09;;;;;;;6.20;1.40;;;;;;;;;;5096635;28;20410;-79
2023/07/30 06:12:34;;;;;;;5.27;2.63;;;;;;;;;;5096967;28;20184;-79
2023/07/30 06:15:00;;;;;;;2.63;2.33;;;;;;;;;;5096892;28;20406;-79
2023/07/30 06:17:26;;;;;;;2.70;1.93;;;;;;;;;;5096990;28;20176;-78
2023/07/30 06:19:52;;;;;;;6.03;2.33;;;;;;;;;;5096904;28;20226;-79
2023/07/30 06:22:18;;;;;;;5.00;2.80;;;;;;;;;;5096838;28;20185;-80
2023/07/30 06:24:44;;;;;;;3.80;2.00;;;;;;;;;;5094549;28;20200;-78
2023/07/30 06:27:10;;;;;;;5.57;2.57;;;;;;;;;;5076313;28;20207;-78
2023/07/30 06:29:36;;;;;;;3.33;2.70;;;;;;;;;;5076437;28;20412;-78
2023/07/30 06:32:02;;;;;;;3.57;2.70;;;;;;;;;;5076308;28;20437;-79
2023/07/30 06:34:28;;;;;;;5.57;2.80;;;;;;;;;;5076331;28;20452;-78
2023/07/30 06:36:54;;;;;;;4.73;2.70;;;;;;;;;;5076265;28;20406;-79
2023/07/30 06:39:21;;;;;;;5.23;3.23;;;;;;;;;;5076190;28;20632;-80
2023/07/30 06:41:47;;;;;;;6.13;2.67;;;;;;;;;;5089495;28;20435;-79
2023/07/30 06:44:13;;;;;;;8.53;3.17;;;;;;;;;;5090196;28;20450;-79
2023/07/30 06:46:39;;;;;;;3.83;2.20;;;;;;;;;;5092397;28;20542;-79
2023/07/30 06:49:05;;;;;;;4.27;2.53;;;;;;;;;;5086943;28;20423;-79
2023/07/30 06:51:31;;;;;;;3.73;1.50;;;;;;;;;;5095965;28;20605;-79
2023/07/30 06:53:57;;;;;;;10.30;3.20;;;;;;;;;;5095212;28;20529;-79
2023/07/30 06:56:29;;;;;;;4.30;2.63;;;;;;;;;;5095588;28;20410;-79
2023/07/30 06:58:55;;;;;;;7.50;2.87;;;;;;;;;;5095546;28;20263;-79
2023/07/30 07:01:21;;;;;;;10.00;3.90;;;;;;;;;;5095786;28;20406;-79
2023/07/30 07:03:47;;;;;;;7.80;4.43;;;;;;;;;;5090831;28;20754;-78
2023/07/30 07:06:12;;;;;;;10.80;4.70;;;;;;;;;;5075350;28;20173;-79
2023/07/30 07:08:41;;;;;;;9.47;4.83;;;;;;;;;;5075247;28;20270;-80
2023/07/30 07:11:07;;;;;;;11.57;4.30;;;;;;;;;;5093972;28;20426;-80
2023/07/30 07:13:33;;;;;;;7.90;5.50;;;;;;;;;;5095403;28;20414;-79
2023/07/30 07:15:59;;;;;;;7.20;4.53;;;;;;;;;;5095269;28;20476;-79
2023/07/30 07:18:25;;;;;;;8.47;5.47;;;;;;;;;;5084139;28;20289;-79
2023/07/30 07:20:51;;;;;;;10.37;4.50;;;;;;;;;;5085952;28;20172;-78
2023/07/30 07:23:17;;;;;;;6.30;4.27;;;;;;;;;;5082848;28;20225;-78
2023/07/30 07:25:44;;;;;;;13.90;5.40;;;;;;;;;;5084101;28;20631;-79
2023/07/30 07:28:10;;;;;;;11.30;5.23;;;;;;;;;;5085364;28;20351;-78
2023/07/30 07:30:39;;;;;;;10.87;5.10;;;;;;;;;;5082674;28;20484;-79
2023/07/30 07:33:12;;;;;;;9.80;4.73;;;;;;;;;;5084013;28;20202;-79
2023/07/30 07:35:38;;;;;;;15.90;6.20;;;;;;;;;;5083729;28;20480;-78
2023/07/30 07:38:04;;;;;;;8.60;4.23;;;;;;;;;;5086337;28;20913;-78
2023/07/30 07:40:33;;;;;;;13.97;4.60;;;;;;;;;;5083001;28;20181;-79
2023/07/30 07:43:01;;;;;;;8.60;4.90;;;;;;;;;;5084524;28;20612;-79
2023/07/30 07:45:27;;;;;;;8.30;4.83;;;;;;;;;;5083520;28;20419;-79
2023/07/30 07:47:53;;;;;;;9.17;4.73;;;;;;;;;;5085929;28;20466;-79
2023/07/30 07:50:18;;;;;;;10.33;5.17;;;;;;;;;;5094561;28;20627;-78
2023/07/30 07:52:44;;;;;;;6.17;3.30;;;;;;;;;;5094927;28;20179;-79
2023/07/30 07:55:10;;;;;;;11.13;4.30;;;;;;;;;;5094502;28;20172;-79
2023/07/30 07:57:36;;;;;;;8.40;3.40;;;;;;;;;;5094721;28;20445;-79
2023/07/30 08:00:05;;;;;;;9.27;3.30;;;;;;;;;;5094629;28;20204;-80
2023/07/30 08:02:30;;;;;;;9.50;3.37;;;;;;;;;;5094637;28;20259;-79
2023/07/30 08:04:56;;;;;;;6.23;3.70;;;;;;;;;;5093294;28;20509;-79
2023/07/30 08:07:22;;;;;;;9.77;4.20;;;;;;;;;;5094583;28;20212;-82
2023/07/30 08:09:49;;;;;;;13.20;3.77;;;;;;;;;;5094118;28;20963;-81
2023/07/30 08:12:14;;;;;;;8.30;3.30;;;;;;;;;;5094484;28;20176;-81
2023/07/30 08:14:40;;;;;;;7.30;3.00;;;;;;;;;;5094410;28;20457;-80
2023/07/30 08:17:06;;;;;;;8.03;2.80;;;;;;;;;;5094028;28;20253;-81
2023/07/30 08:19:32;;;;;;;14.43;3.43;;;;;;;;;;5094422;28;20496;-80
2023/07/30 08:21:58;;;;;;;6.70;1.97;;;;;;;;;;5093894;28;20891;-78
2023/07/30 08:24:24;;;;;;;6.20;2.47;;;;;;;;;;5093891;28;20407;-78
2023/07/30 08:26:50;;;;;;;12.13;2.23;;;;;;;;;;5094361;28;21015;-81
2023/07/30 08:29:16;;;;;;;5.80;1.43;;;;;;;;;;5093442;28;20187;-80
2023/07/30 08:31:42;;;;;;;10.57;2.20;;;;;;;;;;5094129;28;20456;-81
2023/07/30 08:34:08;;;;;;;8.40;2.00;;;;;;;;;;5094067;28;20411;-81
2023/07/30 08:36:34;;;;;;;6.93;1.70;;;;;;;;;;5094015;28;20179;-80
2023/07/30 08:39:02;;;;;;;6.57;1.50;;;;;;;;;;5092679;28;20210;-80
2023/07/30 08:41:28;;;;;;;8.30;2.07;;;;;;;;;;5093556;28;20187;-81
2023/07/30 08:43:54;;;;;;;7.07;2.37;;;;;;;;;;5093662;28;20446;-81
2023/07/30 08:46:20;;;;;;;4.67;1.10;;;;;;;;;;5092365;28;20962;-81
2023/07/30 08:48:47;;;;;;;6.60;1.83;;;;;;;;;;5081401;28;20700;-81
2023/07/30 08:51:15;;;;;;;6.47;1.40;;;;;;;;;;5092329;28;20426;-80
2023/07/30 08:53:42;;;;;;;6.93;2.10;;;;;;;;;;5088174;28;20237;-81
2023/07/30 08:56:08;;;;;;;3.00;1.40;;;;;;;;;;5090300;28;20914;-79
2023/07/30 08:58:35;;;;;;;7.77;2.20;;;;;;;;;;5091157;28;20441;-81
2023/07/30 09:01:01;;;;;;;6.00;1.67;;;;;;;;;;5093616;28;20410;-81
2023/07/30 09:03:28;;;;;;;6.20;1.50;;;;;;;;;;5092589;28;20769;-81
2023/07/30 09:05:54;;;;;;;4.40;1.40;;;;;;;;;;5093273;28;20471;-81
2023/07/30 09:08:22;;;;;;;5.07;1.93;;;;;;;;;;5093515;28;20470;-80
2023/07/30 09:10:50;;;;;;;5.87;1.50;;;;;;;;;;5093275;28;20168;-81
2023/07/30 09:13:21;;;;;;;7.33;1.50;;;;;;;;;;5093564;28;20402;-81
2023/07/30 09:15:49;;;;;;;6.57;2.00;;;;;;;;;;5092284;28;20770;-79
2023/07/30 09:18:16;;;;;;;6.83;1.70;;;;;;;;;;5093549;28;20741;-81
2023/07/30 09:20:42;;;;;;;6.13;1.70;;;;;;;;;;5093453;28;20416;-82
2023/07/30 09:23:09;;;;;;;6.43;1.07;;;;;;;;;;5093383;28;20486;-83
2023/07/30 09:25:36;;;;;;;7.73;2.43;;;;;;;;;;5093091;28;20179;-81
2023/07/30 09:28:02;;;;;;;9.30;2.27;;;;;;;;;;5093323;28;20869;-80
2023/07/30 09:30:28;;;;;;;8.63;1.70;;;;;;;;;;5093393;28;20518;-80
2023/07/30 09:32:55;;;;;;;7.40;1.40;;;;;;;;;;5093301;28;20468;-80
2023/07/30 09:35:21;;;;;;;6.70;1.30;;;;;;;;;;5093246;28;20402;-81
2023/07/30 09:37:48;;;;;;;8.03;1.77;;;;;;;;;;5093226;28;20410;-80
2023/07/30 09:40:15;;;;;;;6.07;0.70;;;;;;;;;;5092862;28;20401;-80
2023/07/30 09:42:44;;;;;;;8.07;1.90;;;;;;;;;;5093040;28;20532;-80
2023/07/30 09:45:23;;;;;;;8.33;1.73;;;;;;;;;;5091836;28;20418;-79
2023/07/30 09:47:50;;;;;;;3.73;1.07;;;;;;;;;;5093201;28;21042;-80
2023/07/30 09:50:16;;;;;;;6.73;1.47;;;;;;;;;;5093163;28;20418;-80
2023/07/30 09:52:43;;;;;;;10.10;2.30;;;;;;;;;;5093066;28;20411;-80
2023/07/30 09:55:09;;;;;;;6.80;1.63;;;;;;;;;;5092657;28;20444;-81
2023/07/30 09:57:35;;;;;;;10.47;2.37;;;;;;;;;;5093016;28;20773;-81
2023/07/30 10:00:03;;;;;;;5.40;2.10;;;;;;;;;;5091750;28;20422;-79
2023/07/30 10:02:31;;;;;;;5.07;1.70;;;;;;;;;;5093028;28;20418;-80
2023/07/30 10:04:57;;;;;;;4.90;1.33;;;;;;;;;;5093004;28;20410;-80
2023/07/30 10:07:24;;;;;;;4.17;1.83;;;;;;;;;;5092830;28;20469;-80
2023/07/30 10:09:53;;;;;;;8.70;1.70;;;;;;;;;;5092741;28;20771;-80
2023/07/30 10:12:21;;;;;;;7.57;1.67;;;;;;;;;;5092919;28;20493;-80
2023/07/30 10:14:47;;;;;;;5.63;1.30;;;;;;;;;;5092918;28;20510;-81
2023/07/30 10:17:13;;;;;;;4.47;1.70;;;;;;;;;;5092812;28;20407;-81
2023/07/30 10:19:39;;;;;;;7.00;1.90;;;;;;;;;;5092784;28;20471;-80
2023/07/30 10:22:11;;;;;;;5.87;2.23;;;;;;;;;;5092883;28;20184;-81
2023/07/30 10:24:38;;;;;;;4.87;1.30;;;;;;;;;;5092448;28;20398;-82
2023/07/30 10:27:08;;;;;;;10.13;2.17;;;;;;;;;;5092672;28;20980;-80
2023/07/30 10:29:39;;;;;;;8.30;1.50;;;;;;;;;;5092754;28;20450;-80
2023/07/30 10:32:05;;;;;;;5.60;1.73;;;;;;;;;;5092712;28;20406;-80
2023/07/30 10:34:47;;;;;;;6.10;1.97;;;;;;;;;;5092825;28;20498;-80
2023/07/30 10:37:24;;;;;;;7.50;2.20;;;;;;;;;;5091391;28;20417;-80
2023/07/30 10:39:49;;;;;;;7.77;2.50;;;;;;;;;;5092339;28;20772;-81
2023/07/30 10:42:18;;;;;;;9.53;2.30;;;;;;;;;;5092450;28;20453;-81
2023/07/30 10:44:44;;;;;;;6.90;2.20;;;;;;;;;;5092662;28;20933;-80
2023/07/30 10:47:10;;;;;;;6.53;1.87;;;;;;;;;;5092466;28;20482;-81
2023/07/30 10:49:46;;;;;;;6.70;1.70;;;;;;;;;;5092554;28;20410;-81
2023/07/30 10:52:12;;;;;;;3.43;1.10;;;;;;;;;;5093761;28;20563;-79
2023/07/30 10:54:38;;;;;;;4.23;1.43;;;;;;;;;;5095893;28;20969;-80
2023/07/30 10:57:04;;;;;;;7.20;1.80;;;;;;;;;;5096185;28;20176;-81
2023/07/30 10:59:37;;;;;;;9.83;1.90;;;;;;;;;;5096105;28;20414;-81
2023/07/30 11:02:03;;;;;;;7.20;1.43;;;;;;;;;;5096090;28;20451;-81
2023/07/30 11:04:29;;;;;;;5.37;2.37;;;;;;;;;;5096071;28;20412;-81
2023/07/30 11:06:55;;;;;;;8.07;2.50;;;;;;;;;;5095937;28;20545;-80
2023/07/30 11:09:22;;;;;;;4.30;1.67;;;;;;;;;;5094365;28;20207;-82
2023/07/30 11:11:49;;;;;;;4.70;1.40;;;;;;;;;;5094645;28;20417;-80
2023/07/30 11:14:21;;;;;;;7.50;1.83;;;;;;;;;;5094578;28;20426;-80
2023/07/30 11:16:49;;;;;;;6.30;1.77;;;;;;;;;;5095865;28;20417;-80
2023/07/30 11:19:15;;;;;;;4.57;1.20;;;;;;;;;;5095735;28;20411;-80
2023/07/30 11:21:47;;;;;;;5.33;1.63;;;;;;;;;;5095707;28;20762;-80
2023/07/30 11:24:13;;;;;;;4.17;1.00;;;;;;;;;;5095451;28;20460;-80
2023/07/30 11:26:39;;;;;;;8.10;1.53;;;;;;;;;;5095638;28;20743;-80
2023/07/30 11:29:16;;;;;;;5.97;1.50;;;;;;;;;;5095592;28;20180;-80
2023/07/30 11:31:43;;;;;;;9.43;1.87;;;;;;;;;;5095573;28;20175;-81
2023/07/30 11:34:09;;;;;;;7.13;1.30;;;;;;;;;;5095511;28;20421;-81
2023/07/30 11:36:35;;;;;;;5.00;0.87;;;;;;;;;;5095447;28;20477;-80
2023/07/30 11:39:01;;;;;;;3.60;1.23;;;;;;;;;;5093734;28;20426;-80
2023/07/30 11:41:27;;;;;;;4.40;1.33;;;;;;;;;;5095313;28;20176;-80
2023/07/30 11:43:54;;;;;;;4.03;0.80;;;;;;;;;;5095132;28;20458;-81
2023/07/30 11:46:22;;;;;;;5.77;0.90;;;;;;;;;;5095297;28;20475;-82
2023/07/30 11:48:49;;;;;;;5.87;1.10;;;;;;;;;;5095172;28;20968;-82
2023/07/30 11:51:27;;;;;;;5.53;1.67;;;;;;;;;;5095145;28;20511;-82
2023/07/30 11:53:55;;;;;;;5.63;1.23;;;;;;;;;;5094765;28;20413;-81
2023/07/30 11:56:22;;;;;;;7.70;1.00;;;;;;;;;;5095037;28;20415;-80
2023/07/30 11:58:49;;;;;;;6.07;1.43;;;;;;;;;;5095030;28;20414;-82
2023/07/30 12:01:15;;;;;;;4.93;1.07;;;;;;;;;;5095001;28;20412;-81
2023/07/30 12:03:41;;;;;;;3.10;0.70;;;;;;;;;;5093814;28;20407;-82
2023/07/30 12:06:09;;;;;;;6.60;0.90;;;;;;;;;;5094908;28;20500;-81
2023/07/30 12:08:35;;;;;;;4.10;0.63;;;;;;;;;;5094768;28;20480;-82
2023/07/30 12:11:09;;;;;;;2.87;1.00;;;;;;;;;;5094604;28;20399;-81
2023/07/30 12:13:35;;;;;;;7.83;1.77;;;;;;;;;;5094682;28;20919;-82
2023/07/30 12:16:01;;;;;;;3.03;0.50;;;;;;;;;;5094617;28;20491;-82
2023/07/30 12:18:28;;;;;;;3.50;0.90;;;;;;;;;;5093333;28;20418;-82
2023/07/30 12:20:54;;;;;;;5.10;0.77;;;;;;;;;;5094660;28;20926;-80
2023/07/30 12:23:21;;;;;;;2.27;0.50;;;;;;;;;;5094469;28;20415;-81
2023/07/30 12:25:47;;;;;;;4.70;0.77;;;;;;;;;;5094159;28;20489;-81
2023/07/30 12:28:13;;;;;;;6.40;1.20;;;;;;;;;;5094479;28;20473;-82
2023/07/30 12:30:39;;;;;;;3.87;1.30;;;;;;;;;;5094385;28;20425;-81
2023/07/30 12:33:05;;;;;;;6.00;1.03;;;;;;;;;;5094356;28;20418;-83
2023/07/30 12:35:31;;;;;;;5.77;0.50;;;;;;;;;;5094292;28;20168;-81
2023/07/30 12:37:58;;;;;;;4.33;0.47;;;;;;;;;;5094211;28;20418;-81
2023/07/30 12:40:24;;;;;;;5.20;0.90;;;;;;;;;;5093848;28;20406;-81
2023/07/30 12:42:49;;;;;;;6.30;1.40;;;;;;;;;;5093926;28;20464;-81
2023/07/30 12:45:16;;;;;;;4.03;0.70;;;;;;;;;;5094108;28;20471;-81
2023/07/30 12:47:42;;;;;;;10.10;1.43;;;;;;;;;;5094067;28;20265;-81
2023/07/30 12:50:08;;;;;;;3.20;0.80;;;;;;;;;;5093978;28;20411;-81
2023/07/30 12:52:34;;;;;;;7.40;1.33;;;;;;;;;;5094008;28;20902;-81
2023/07/30 12:55:01;;;;;;;4.30;1.00;;;;;;;;;;5093532;28;20430;-80
2023/07/30 12:57:27;;;;;;;6.23;1.67;;;;;;;;;;5092519;28;20994;-81
2023/07/30 12:59:53;;;;;;;3.53;0.80;;;;;;;;;;5093794;28;20914;-80
2023/07/30 13:02:19;;;;;;;6.10;1.20;;;;;;;;;;5093853;28;20453;-81
2023/07/30 13:04:45;;;;;;;2.87;1.00;;;;;;;;;;5093838;28;20203;-81
2023/07/30 13:07:11;;;;;;;3.07;1.03;;;;;;;;;;5093638;28;20672;-81
2023/07/30 13:09:37;;;;;;;3.80;0.70;;;;;;;;;;5093330;28;20275;-81
2023/07/30 13:12:03;;;;;;;6.23;1.20;;;;;;;;;;5093580;28;20648;-81
2023/07/30 13:14:29;;;;;;;6.17;1.27;;;;;;;;;;5093518;28;20168;-80
2023/07/30 13:16:54;;;;;;;5.63;1.50;;;;;;;;;;5093585;28;20489;-80
2023/07/30 13:19:20;;;;;;;4.67;1.03;;;;;;;;;;5093579;28;20217;-80
2023/07/30 13:21:46;;;;;;;3.20;1.43;;;;;;;;;;5093620;28;20265;-83
2023/07/30 13:24:12;;;;;;;7.27;2.13;;;;;;;;;;5093193;28;20178;-80
2023/07/30 13:26:38;;;;;;;5.40;1.10;;;;;;;;;;5092026;28;20263;-81
2023/07/30 13:29:07;;;;;;;6.77;0.80;;;;;;;;;;5093415;28;20519;-79
2023/07/30 13:31:33;;;;;;;4.03;0.97;;;;;;;;;;5093368;28;20888;-79
2023/07/30 13:33:59;;;;;;;3.17;0.90;;;;;;;;;;5093351;28;20414;-81
2023/07/30 13:36:25;;;;;;;4.47;0.60;;;;;;;;;;5093359;28;20174;-79
2023/07/30 13:38:50;;;;;;;6.00;0.97;;;;;;;;;;5092907;28;20627;-79
2023/07/30 13:41:16;;;;;;;1.93;0.60;;;;;;;;;;5093233;28;20172;-80
2023/07/30 13:43:42;;;;;;;2.20;0.37;;;;;;;;;;5092987;28;20216;-78
2023/07/30 13:46:08;;;;;;;2.63;0.73;;;;;;;;;;5093217;28;20176;-79
2023/07/30 13:48:34;;;;;;;1.80;0.43;;;;;;;;;;5093105;28;20215;-79
2023/07/30 13:51:00;;;;;;;1.90;0.60;;;;;;;;;;5093137;28;20176;-78
2023/07/30 13:53:26;;;;;;;1.07;0.30;;;;;;;;;;5092767;28;20417;-79
2023/07/30 13:55:52;;;;;;;3.63;0.30;;;;;;;;;;5093036;28;20218;-80
2023/07/30 13:58:18;;;;;;;3.13;0.50;;;;;;;;;;5093086;28;20297;-79
2023/07/30 14:00:44;;;;;;;1.30;0.40;;;;;;;;;;5093001;28;20425;-79
2023/07/30 14:03:11;;;;;;;1.80;0.50;;;;;;;;;;5093006;28;20178;-78
2023/07/30 14:05:37;;;;;;;3.10;1.13;;;;;;;;;;5093064;28;20208;-79
2023/07/30 14:08:03;;;;;;;5.30;0.67;;;;;;;;;;5092940;28;20504;-81
2023/07/30 14:10:29;;;;;;;3.10;0.40;;;;;;;;;;5092660;28;20698;-80
2023/07/30 14:12:55;;;;;;;2.30;0.30;;;;;;;;;;5092968;28;20889;-79
2023/07/30 14:15:21;;;;;;;4.90;0.40;;;;;;;;;;5092933;28;20765;-80
2023/07/30 14:17:46;;;;;;;2.00;0.70;;;;;;;;;;5092873;28;20440;-79
2023/07/30 14:20:12;;;;;;;4.60;0.97;;;;;;;;;;5092877;28;20408;-79
2023/07/30 14:22:38;;;;;;;3.63;0.80;;;;;;;;;;5092825;28;20562;-80
2023/07/30 14:25:04;;;;;;;3.03;0.90;;;;;;;;;;5092428;28;20184;-79
2023/07/30 14:27:30;;;;;;;1.80;0.40;;;;;;;;;;5095605;28;20244;-80
2023/07/30 14:29:56;;;;;;;2.60;0.73;;;;;;;;;;5096739;28;20492;-80
2023/07/30 14:32:23;;;;;;;6.90;0.90;;;;;;;;;;5096569;28;20960;-80
2023/07/30 14:34:49;;;;;;;2.10;0.63;;;;;;;;;;5096664;28;20163;-80
2023/07/30 14:37:15;;;;;;;1.37;0.30;;;;;;;;;;5096643;28;20891;-80
2023/07/30 14:39:41;;;;;;;2.10;0.50;;;;;;;;;;5096118;28;20254;-81